EGTK/OXF METAR and TAF weather

Enter ICAO airport designator
Station Type Date Time Source
EGTK METAR 2022/12/08 12:50 UTC NOAA

EGTK 081250Z 34006KT 300V360 CAVOK 03/M01 Q1010


Station Type Date Time Source
EGTK Decoded METAR 2022/12/08 12:50 UTC NOAA

Station name not available
Dec 08, 2022 - 07:50 AM EST / 2022.12.08 1250 UTC
Wind: from the NNW (340 degrees) at 7 MPH (6 KT) (direction variable):0
Visibility: greater than 7 mile(s):0
Temperature: 37 F (3 C)
Dew Point: 30 F (-1 C)
Relative Humidity: 74%
Pressure (altimeter): 29.83 in. Hg (1010 hPa)
ob: EGTK 081250Z 34006KT 300V360 CAVOK 03/M01 Q1010
cycle: 13

Station Type Date Time Source
EGTK TAF UTC NOAA

Error!

Example: see airport list